createdAt,value
2022-09-13T00:00:23.939Z,55.38
2022-09-13T00:03:27.699Z,56.08
2022-09-13T00:06:32.266Z,56.51
2022-09-13T00:09:35.506Z,56.63
2022-09-13T00:12:38.699Z,56.61
2022-09-13T00:15:45.195Z,56.09
2022-09-13T00:18:49.110Z,56.08
2022-09-13T00:21:53.862Z,56.69
2022-09-13T00:24:57.198Z,56.48
2022-09-13T00:28:00.406Z,55.89
2022-09-13T00:31:05.937Z,55.87
2022-09-13T00:34:09.182Z,55.13
2022-09-13T00:37:13.794Z,56.25
2022-09-13T00:40:17.293Z,55.94
2022-09-13T00:43:22.754Z,55.24
2022-09-13T00:46:33.816Z,56.29
2022-09-13T00:49:40.006Z,55.88
2022-09-13T00:52:46.902Z,55.63
2022-09-13T00:55:55.185Z,54.88
2022-09-13T00:59:02.533Z,55.47
2022-09-13T01:02:06.285Z,56.17
2022-09-13T01:05:10.791Z,56.20
2022-09-13T01:08:23.187Z,55.71
2022-09-13T01:11:33.061Z,55.87
2022-09-13T01:14:37.207Z,55.02
2022-09-13T01:17:41.157Z,55.30
2022-09-13T01:21:13.768Z,56.46
2022-09-13T01:24:50.503Z,56.56
2022-09-13T01:28:11.790Z,55.85
2022-09-13T01:31:25.483Z,56.39
2022-09-13T01:34:40.553Z,54.89
2022-09-13T01:37:53.164Z,55.86
2022-09-13T01:41:07.991Z,55.67
2022-09-13T01:44:21.722Z,56.12
2022-09-13T01:47:32.100Z,56.70
2022-09-13T01:50:41.229Z,57.00
2022-09-13T01:53:53.892Z,56.61
2022-09-13T01:57:06.040Z,56.50
2022-09-13T02:00:13.142Z,56.42
2022-09-13T02:03:21.892Z,56.58
2022-09-13T02:06:29.307Z,56.46
2022-09-13T02:09:36.399Z,55.90
2022-09-13T02:12:44.364Z,56.52
2022-09-13T02:15:50.319Z,57.32
2022-09-13T02:19:00.175Z,56.83
2022-09-13T02:22:07.469Z,57.20
2022-09-13T02:25:15.421Z,56.64
2022-09-13T02:28:24.202Z,56.88
2022-09-13T02:31:32.075Z,55.86
2022-09-13T02:34:41.785Z,55.39
2022-09-13T02:37:49.926Z,54.83
2022-09-13T02:40:58.836Z,55.51
2022-09-13T02:44:08.983Z,56.31
2022-09-13T02:47:18.876Z,56.08
2022-09-13T02:50:48.268Z,56.11
2022-09-13T02:53:56.826Z,56.30
2022-09-13T02:57:03.645Z,54.94
2022-09-13T03:00:08.353Z,56.46
2022-09-13T03:03:13.830Z,55.68
2022-09-13T03:06:25.186Z,55.48
2022-09-13T03:09:29.198Z,55.70
2022-09-13T03:12:58.716Z,55.38
2022-09-13T03:16:10.262Z,54.20
2022-09-13T03:19:29.409Z,54.94
2022-09-13T03:22:50.545Z,53.91
2022-09-13T03:26:22.216Z,54.88
2022-09-13T03:29:32.090Z,54.29
2022-09-13T03:32:43.550Z,54.22
2022-09-13T03:35:54.785Z,54.83
2022-09-13T03:39:05.983Z,56.09
2022-09-13T03:42:17.334Z,55.81
2022-09-13T03:45:25.107Z,55.74
2022-09-13T03:48:29.434Z,55.95
2022-09-13T03:51:33.869Z,56.43
2022-09-13T03:54:39.580Z,56.45
2022-09-13T03:57:42.735Z,56.88
2022-09-13T04:00:46.635Z,56.92
2022-09-13T04:03:54.539Z,57.07
2022-09-13T04:07:01.967Z,57.33
2022-09-13T04:10:10.704Z,56.91
2022-09-13T04:13:17.229Z,56.81
2022-09-13T04:16:20.488Z,56.39
2022-09-13T04:19:24.333Z,56.73
2022-09-13T04:22:27.493Z,55.99
2022-09-13T04:25:32.213Z,55.44
2022-09-13T04:31:39.007Z,55.58
2022-09-13T04:34:42.274Z,56.30
2022-09-13T04:37:45.543Z,55.55
2022-09-13T04:40:55.558Z,55.94
2022-09-13T04:43:58.777Z,55.58
2022-09-13T04:47:02.132Z,56.52
2022-09-13T04:50:05.778Z,55.86
2022-09-13T04:53:09.132Z,56.51
2022-09-13T04:56:15.602Z,55.70
2022-09-13T04:59:18.875Z,54.98
2022-09-13T05:02:22.246Z,55.96
2022-09-13T05:05:28.860Z,55.26
2022-09-13T05:08:32.364Z,55.57
2022-09-13T05:11:36.886Z,55.57
2022-09-13T05:14:40.218Z,55.67
2022-09-13T05:17:43.404Z,54.55
2022-09-13T05:20:46.673Z,55.53
2022-09-13T05:23:50.768Z,54.24
2022-09-13T05:26:55.374Z,54.51
2022-09-13T05:29:58.560Z,54.29
2022-09-13T05:33:01.823Z,53.56
2022-09-13T05:36:05.515Z,52.03
2022-09-13T05:39:31.424Z,52.07
2022-09-13T05:42:38.066Z,51.09
2022-09-13T05:45:41.496Z,50.71
2022-09-13T05:48:46.367Z,50.50
2022-09-13T05:51:49.895Z,49.83
2022-09-13T05:54:54.343Z,50.51
2022-09-13T05:57:59.001Z,51.12
2022-09-13T06:01:02.231Z,50.54
2022-09-13T06:04:05.411Z,50.55
2022-09-13T06:07:08.626Z,49.97
2022-09-13T06:10:12.560Z,49.27
2022-09-13T06:13:17.481Z,50.04
2022-09-13T06:16:20.785Z,48.48
2022-09-13T06:19:24.240Z,48.72
2022-09-13T06:22:33.167Z,48.78
2022-09-13T06:25:36.418Z,49.50
2022-09-13T06:28:41.093Z,48.17
2022-09-13T06:31:45.473Z,47.96
2022-09-13T06:34:48.728Z,47.75
2022-09-13T06:37:52.342Z,48.25
2022-09-13T06:41:01.579Z,48.38
2022-09-13T06:44:06.709Z,46.94
2022-09-13T06:47:09.955Z,47.07
2022-09-13T06:50:13.904Z,45.24
2022-09-13T06:53:17.125Z,44.97
2022-09-13T06:56:22.224Z,45.33
2022-09-13T06:59:26.850Z,44.68
2022-09-13T07:02:30.025Z,44.17
2022-09-13T07:05:33.227Z,44.76
2022-09-13T07:08:36.458Z,43.05
2022-09-13T07:11:42.389Z,42.75
2022-09-13T07:14:46.984Z,43.78
2022-09-13T07:17:56.445Z,43.63
2022-09-13T07:21:04.643Z,42.30
2022-09-13T07:24:08.252Z,42.89
2022-09-13T07:27:11.444Z,41.98
2022-09-13T07:30:16.365Z,40.84
2022-09-13T07:33:19.566Z,40.78
2022-09-13T07:36:24.086Z,39.27
2022-09-13T07:39:27.426Z,39.71
2022-09-13T07:42:30.681Z,39.98
2022-09-13T07:45:35.297Z,39.23
2022-09-13T07:48:40.918Z,39.20
2022-09-13T07:51:45.356Z,38.89
2022-09-13T07:54:48.808Z,38.52
2022-09-13T07:57:52.074Z,38.88
2022-09-13T08:00:58.926Z,38.01
2022-09-13T08:04:04.777Z,38.89
2022-09-13T08:07:07.987Z,37.49
2022-09-13T08:10:11.558Z,37.08
2022-09-13T08:13:16.722Z,37.19
2022-09-13T08:16:23.616Z,36.34
2022-09-13T08:19:27.235Z,35.51
2022-09-13T08:22:30.568Z,37.10
2022-09-13T08:25:34.900Z,37.46
2022-09-13T08:28:40.252Z,36.75
2022-09-13T08:31:45.242Z,36.34
2022-09-13T08:34:48.602Z,36.50
2022-09-13T08:37:51.857Z,35.65
2022-09-13T08:40:57.902Z,33.68
2022-09-13T08:44:06.971Z,34.18
2022-09-13T08:47:32.005Z,33.19
2022-09-13T08:50:37.427Z,33.41
2022-09-13T08:53:46.952Z,32.92
2022-09-13T08:56:58.113Z,32.93
2022-09-13T09:00:08.114Z,31.93
2022-09-13T09:03:24.308Z,32.06
2022-09-13T09:06:27.738Z,32.92
2022-09-13T09:09:35.638Z,33.84
2022-09-13T09:12:44.566Z,34.05
2022-09-13T09:15:50.192Z,33.85
2022-09-13T09:18:57.945Z,34.81
2022-09-13T09:22:04.977Z,35.75
2022-09-13T09:25:13.169Z,35.91
2022-09-13T09:28:18.543Z,36.03
2022-09-13T09:31:30.534Z,36.56
2022-09-13T09:34:48.625Z,36.02
2022-09-13T09:38:16.010Z,36.93
2022-09-13T09:41:27.993Z,36.48
2022-09-13T09:44:34.079Z,36.27
2022-09-13T09:47:45.754Z,36.46
2022-09-13T09:50:54.751Z,35.93
2022-09-13T09:54:05.273Z,35.81
2022-09-13T09:57:09.093Z,35.05
2022-09-13T10:00:14.649Z,34.84
2022-09-13T10:03:21.131Z,35.74
2022-09-13T10:06:28.419Z,34.77
2022-09-13T10:09:31.815Z,35.05
2022-09-13T10:12:38.215Z,35.83
2022-09-13T10:15:55.379Z,35.59
2022-09-13T10:19:25.445Z,35.50
2022-09-13T10:22:33.840Z,35.13
2022-09-13T10:25:38.004Z,34.37
2022-09-13T10:28:48.282Z,34.06
2022-09-13T10:31:55.387Z,33.97
2022-09-13T10:35:10.145Z,33.70
2022-09-13T10:38:25.985Z,33.17
2022-09-13T10:41:32.406Z,33.25
2022-09-13T10:45:05.920Z,33.44
2022-09-13T10:48:16.425Z,33.22
2022-09-13T10:51:32.602Z,32.11
2022-09-13T10:54:37.268Z,31.52
2022-09-13T10:57:40.501Z,31.52
2022-09-13T11:01:20.806Z,32.01
2022-09-13T11:05:06.526Z,32.83
2022-09-13T11:08:38.377Z,32.75
2022-09-13T11:11:53.964Z,32.46
2022-09-13T11:15:07.357Z,33.30
2022-09-13T11:18:54.109Z,32.74
2022-09-13T11:22:21.508Z,32.13
2022-09-13T11:25:37.773Z,33.50
2022-09-13T11:28:55.873Z,32.97
2022-09-13T11:32:11.277Z,31.13
2022-09-13T11:35:37.762Z,30.23
2022-09-13T11:38:57.301Z,30.79
2022-09-13T11:42:13.932Z,31.56
2022-09-13T11:45:24.362Z,31.33
2022-09-13T11:48:51.312Z,31.66
2022-09-13T11:52:07.865Z,31.33
2022-09-13T11:55:18.312Z,31.88
2022-09-13T11:58:27.022Z,32.06
2022-09-13T12:01:39.787Z,32.50
2022-09-13T12:05:18.077Z,32.64
2022-09-13T12:08:21.169Z,32.35
2022-09-13T12:11:28.486Z,32.41
2022-09-13T12:14:39.327Z,31.35
2022-09-13T12:17:47.016Z,30.12
2022-09-13T12:20:53.468Z,29.11
2022-09-13T12:24:02.525Z,29.29
2022-09-13T12:27:17.238Z,28.94
2022-09-13T12:30:24.774Z,28.71
2022-09-13T12:33:29.634Z,28.04
2022-09-13T12:36:51.262Z,27.93
2022-09-13T12:40:20.981Z,27.96
2022-09-13T12:44:30.513Z,27.79
2022-09-13T12:48:05.901Z,27.72
2022-09-13T12:51:23.189Z,28.30
2022-09-13T12:54:45.879Z,28.31
2022-09-13T12:57:56.407Z,28.61
2022-09-13T13:01:11.087Z,27.97
2022-09-13T13:04:17.745Z,28.24
2022-09-13T13:07:24.409Z,28.39
2022-09-13T13:10:31.150Z,28.93
2022-09-13T13:13:38.052Z,28.94
2022-09-13T13:16:41.641Z,28.97
2022-09-13T13:19:45.297Z,28.24
2022-09-13T13:22:52.769Z,28.26
2022-09-13T13:26:12.099Z,27.97
2022-09-13T13:29:20.763Z,28.30
2022-09-13T13:32:24.968Z,28.22
2022-09-13T13:35:32.511Z,27.61
2022-09-13T13:38:50.293Z,27.86
2022-09-13T13:41:57.736Z,28.34
2022-09-13T13:45:18.676Z,28.32
2022-09-13T13:48:38.293Z,29.38
2022-09-13T13:51:41.661Z,28.71
2022-09-13T13:55:04.508Z,28.40
2022-09-13T13:58:23.612Z,28.04
2022-09-13T14:01:29.953Z,28.91
2022-09-13T14:04:58.909Z,28.69
2022-09-13T14:08:27.770Z,28.96
2022-09-13T14:11:46.699Z,29.68
2022-09-13T14:15:07.563Z,28.40
2022-09-13T14:18:47.844Z,28.44
2022-09-13T14:22:14.048Z,28.49
2022-09-13T14:25:25.397Z,29.18
2022-09-13T14:28:30.301Z,28.95
2022-09-13T14:31:33.600Z,28.85
2022-09-13T14:34:39.452Z,28.97
2022-09-13T14:37:42.696Z,28.46
2022-09-13T14:40:49.969Z,28.34
2022-09-13T14:43:54.616Z,28.82
2022-09-13T14:47:13.382Z,27.74
2022-09-13T14:50:20.225Z,27.73
2022-09-13T14:53:26.830Z,27.89
2022-09-13T14:56:37.048Z,28.24
2022-09-13T14:59:46.632Z,27.53
2022-09-13T15:02:52.494Z,27.49
2022-09-13T15:05:58.258Z,27.72
2022-09-13T15:09:14.845Z,27.74
2022-09-13T15:12:25.947Z,27.67
2022-09-13T15:15:39.116Z,28.10
2022-09-13T15:18:42.441Z,28.24
2022-09-13T15:21:46.582Z,27.69
2022-09-13T15:24:52.709Z,27.53
2022-09-13T15:27:57.339Z,27.65
2022-09-13T15:31:03.510Z,27.58
2022-09-13T15:34:21.551Z,27.45
2022-09-13T15:37:35.408Z,27.40
2022-09-13T15:40:44.352Z,27.30
2022-09-13T15:43:49.744Z,27.63
2022-09-13T15:46:55.983Z,28.02
2022-09-13T15:49:59.780Z,28.38
2022-09-13T15:53:03.138Z,28.88
2022-09-13T15:56:07.720Z,29.14
2022-09-13T15:59:14.715Z,29.72
2022-09-13T16:02:22.714Z,30.20
2022-09-13T16:05:26.131Z,30.33
2022-09-13T16:08:29.321Z,31.03
2022-09-13T16:11:32.600Z,31.19
2022-09-13T16:14:35.838Z,31.16
2022-09-13T16:17:41.010Z,30.88
2022-09-13T16:20:44.284Z,31.02
2022-09-13T16:23:47.484Z,31.33
2022-09-13T16:26:50.711Z,31.24
2022-09-13T16:29:54.510Z,31.29
2022-09-13T16:32:59.079Z,31.61
2022-09-13T16:36:02.669Z,31.73
2022-09-13T16:39:06.402Z,31.96
2022-09-13T16:42:09.634Z,31.98
2022-09-13T16:45:13.952Z,32.41
2022-09-13T16:48:18.791Z,32.97
2022-09-13T16:51:22.078Z,33.45
2022-09-13T16:54:25.271Z,33.84
2022-09-13T16:57:28.448Z,34.44
2022-09-13T17:00:31.700Z,35.09
2022-09-13T17:03:36.987Z,34.85
2022-09-13T17:06:40.461Z,35.97
2022-09-13T17:09:43.699Z,35.87
2022-09-13T17:12:47.132Z,35.64
2022-09-13T17:15:53.711Z,36.03
2022-09-13T17:19:10.140Z,35.55
2022-09-13T17:22:13.760Z,35.75
2022-09-13T17:25:17.105Z,36.02
2022-09-13T17:28:21.682Z,36.63
2022-09-13T17:31:25.376Z,37.02
2022-09-13T17:34:30.787Z,36.52
2022-09-13T17:37:34.035Z,37.11
2022-09-13T17:40:37.305Z,37.96
2022-09-13T17:43:41.897Z,38.54
2022-09-13T17:46:45.223Z,38.82
2022-09-13T17:49:49.928Z,39.38
2022-09-13T17:52:53.163Z,39.33
2022-09-13T17:55:56.351Z,39.04
2022-09-13T17:59:09.815Z,39.01
2022-09-13T18:02:13.565Z,39.51
2022-09-13T18:05:18.277Z,39.65
2022-09-13T18:08:21.523Z,39.82
2022-09-13T18:11:24.736Z,40.22
2022-09-13T18:14:27.971Z,40.61
2022-09-13T18:17:31.199Z,41.15
2022-09-13T18:20:40.395Z,41.09
2022-09-13T18:23:43.880Z,41.94
2022-09-13T18:26:47.382Z,42.38
2022-09-13T18:29:50.615Z,42.51
2022-09-13T18:32:53.892Z,42.84
2022-09-13T18:36:03.821Z,42.68
2022-09-13T18:39:08.801Z,42.83
2022-09-13T18:42:12.190Z,43.70
2022-09-13T18:45:15.674Z,43.42
2022-09-13T18:48:18.851Z,44.38
2022-09-13T18:51:25.493Z,43.66
2022-09-13T18:54:28.719Z,43.91
2022-09-13T18:57:31.966Z,44.24
2022-09-13T19:00:35.216Z,44.03
2022-09-13T19:03:38.900Z,44.19
2022-09-13T19:06:44.648Z,44.34
2022-09-13T19:09:53.863Z,43.94
2022-09-13T19:12:57.163Z,43.55
2022-09-13T19:16:00.545Z,43.68
2022-09-13T19:19:04.067Z,43.29
2022-09-13T19:22:08.728Z,43.04
2022-09-13T19:25:18.002Z,43.12
2022-09-13T19:28:21.282Z,43.73
2022-09-13T19:31:26.388Z,43.80
2022-09-13T19:34:29.638Z,44.00
2022-09-13T19:37:34.268Z,43.73
2022-09-13T19:40:38.888Z,44.17
2022-09-13T19:43:44.607Z,44.39
2022-09-13T19:46:48.252Z,43.49
2022-09-13T19:49:51.470Z,43.84
2022-09-13T19:52:56.087Z,43.17
2022-09-13T19:55:59.535Z,43.57
2022-09-13T19:59:03.680Z,43.38
2022-09-13T20:02:07.110Z,43.19
2022-09-13T20:05:10.753Z,43.45
2022-09-13T20:08:15.704Z,43.25
2022-09-13T20:11:19.672Z,43.46
2022-09-13T20:14:23.299Z,42.86
2022-09-13T20:17:26.697Z,43.00
2022-09-13T20:20:30.168Z,42.50
2022-09-13T20:23:35.266Z,42.96
2022-09-13T20:26:38.645Z,43.40
2022-09-13T20:29:42.538Z,43.76
2022-09-13T20:32:47.952Z,44.54
2022-09-13T20:35:52.162Z,43.61
2022-09-13T20:39:02.349Z,43.59
2022-09-13T20:42:06.853Z,44.30
2022-09-13T20:45:11.314Z,44.05
2022-09-13T20:48:14.481Z,44.55
2022-09-13T20:51:19.481Z,44.09
2022-09-13T20:54:24.155Z,44.43
2022-09-13T20:57:27.419Z,44.87
2022-09-13T21:00:30.663Z,44.90
2022-09-13T21:03:36.864Z,44.41
2022-09-13T21:07:02.623Z,43.62
2022-09-13T21:10:07.245Z,43.81
2022-09-13T21:13:10.500Z,44.39
2022-09-13T21:16:15.597Z,43.87
2022-09-13T21:19:18.898Z,43.28
2022-09-13T21:22:22.160Z,43.72
2022-09-13T21:25:26.890Z,44.24
2022-09-13T21:28:30.599Z,44.50
2022-09-13T21:31:35.567Z,44.80
2022-09-13T21:34:38.984Z,44.90
2022-09-13T21:37:42.642Z,45.40
2022-09-13T21:40:55.158Z,44.94
2022-09-13T21:43:58.631Z,44.84
2022-09-13T21:47:01.861Z,45.33
2022-09-13T21:50:05.458Z,44.40
2022-09-13T21:53:08.899Z,44.38
2022-09-13T21:56:18.578Z,44.52
2022-09-13T21:59:23.263Z,45.30
2022-09-13T22:02:34.061Z,44.98
2022-09-13T22:05:44.844Z,45.42
2022-09-13T22:09:01.153Z,44.93
2022-09-13T22:12:34.903Z,44.70
2022-09-13T22:15:54.261Z,44.85
2022-09-13T22:19:26.778Z,45.00
2022-09-13T22:22:32.287Z,45.18
2022-09-13T22:25:45.738Z,45.26
2022-09-13T22:28:56.300Z,45.85
2022-09-13T22:32:07.517Z,45.88
2022-09-13T22:35:15.771Z,45.86
2022-09-13T22:38:24.303Z,46.53
2022-09-13T22:41:30.228Z,45.85
2022-09-13T22:44:35.348Z,45.43
2022-09-13T22:47:44.564Z,45.56
2022-09-13T22:50:52.352Z,45.04
2022-09-13T22:53:56.302Z,45.32
2022-09-13T22:57:00.485Z,44.70
2022-09-13T23:00:05.784Z,44.39
2022-09-13T23:03:09.383Z,44.81
2022-09-13T23:06:14.059Z,44.83
2022-09-13T23:09:19.502Z,44.58
2022-09-13T23:12:22.752Z,45.44
2022-09-13T23:15:27.595Z,45.59
2022-09-13T23:18:32.575Z,45.53
2022-09-13T23:21:38.799Z,45.17
2022-09-13T23:24:42.020Z,45.75
2022-09-13T23:27:45.352Z,46.00
2022-09-13T23:30:50.011Z,46.38
2022-09-13T23:34:01.713Z,46.94
2022-09-13T23:37:05.001Z,46.45
2022-09-13T23:40:09.075Z,46.47
2022-09-13T23:43:12.309Z,46.50
2022-09-13T23:46:17.748Z,47.65
2022-09-13T23:49:20.963Z,48.01
2022-09-13T23:52:24.209Z,48.47
2022-09-13T23:55:27.464Z,48.72
2022-09-13T23:58:31.406Z,48.37
